createdAt,value
2022-07-29T00:01:44.145Z,21.74
2022-07-29T00:04:14.619Z,21.69
2022-07-29T00:06:43.599Z,21.62
2022-07-29T00:09:11.932Z,21.57
2022-07-29T00:11:40.282Z,21.51
2022-07-29T00:14:08.617Z,21.46
2022-07-29T00:16:37.396Z,21.38
2022-07-29T00:19:05.855Z,21.33
2022-07-29T00:21:37.477Z,21.26
2022-07-29T00:24:06.377Z,21.20
2022-07-29T00:26:34.754Z,21.14
2022-07-29T00:29:33.027Z,21.10
2022-07-29T00:31:54.929Z,21.04
2022-07-29T00:34:40.698Z,21.01
2022-07-29T00:37:10.467Z,20.97
2022-07-29T00:39:38.778Z,20.96
2022-07-29T00:42:07.969Z,20.95
2022-07-29T00:44:40.124Z,20.96
2022-07-29T00:47:09.930Z,20.95
2022-07-29T00:49:38.670Z,20.94
2022-07-29T00:52:10.553Z,20.90
2022-07-29T00:54:44.809Z,20.89
2022-07-29T00:57:14.208Z,20.87
2022-07-29T00:59:43.577Z,20.87
2022-07-29T01:02:12.166Z,20.87
2022-07-29T01:04:41.122Z,20.88
2022-07-29T01:07:11.732Z,20.89
2022-07-29T01:09:45.664Z,20.90
2022-07-29T01:12:17.099Z,20.89
2022-07-29T01:14:46.432Z,20.89
2022-07-29T01:17:22.790Z,20.89
2022-07-29T01:20:00.292Z,20.89
2022-07-29T01:22:43.826Z,20.87
2022-07-29T01:25:45.708Z,20.84
2022-07-29T01:29:05.357Z,20.79
2022-07-29T01:31:58.541Z,20.77
2022-07-29T01:34:37.294Z,20.75
2022-07-29T01:37:15.092Z,20.72
2022-07-29T01:39:46.729Z,20.70
2022-07-29T01:42:25.872Z,20.67
2022-07-29T01:45:01.585Z,20.67
2022-07-29T01:47:40.933Z,20.64
2022-07-29T01:50:14.802Z,20.61
2022-07-29T01:52:51.630Z,20.57
2022-07-29T01:55:22.400Z,20.52
2022-07-29T01:57:51.741Z,20.51
2022-07-29T02:00:22.396Z,20.48
2022-07-29T02:02:52.584Z,20.44
2022-07-29T02:05:25.246Z,20.39
2022-07-29T02:07:56.931Z,20.37
2022-07-29T02:10:31.817Z,20.34
2022-07-29T02:13:00.617Z,20.27
2022-07-29T02:15:34.589Z,20.26
2022-07-29T02:18:09.198Z,20.21
2022-07-29T02:20:39.824Z,20.17
2022-07-29T02:23:11.680Z,20.13
2022-07-29T02:25:40.841Z,20.10
2022-07-29T02:28:10.557Z,20.06
2022-07-29T02:30:45.210Z,20.04
2022-07-29T02:33:17.678Z,20.00
2022-07-29T02:35:49.638Z,19.97
2022-07-29T02:38:36.566Z,19.93
2022-07-29T02:41:12.303Z,19.90
2022-07-29T02:43:41.440Z,19.89
2022-07-29T02:46:29.088Z,19.87
2022-07-29T02:49:06.278Z,19.83
2022-07-29T02:51:44.965Z,19.80
2022-07-29T02:54:28.223Z,19.78
2022-07-29T02:57:00.080Z,19.75
2022-07-29T02:59:32.969Z,19.71
2022-07-29T03:02:04.252Z,19.69
2022-07-29T03:04:34.341Z,19.63
2022-07-29T03:07:03.872Z,19.60
2022-07-29T03:09:32.754Z,19.57
2022-07-29T03:12:02.230Z,19.52
2022-07-29T03:14:32.362Z,19.50
2022-07-29T03:17:02.816Z,19.44
2022-07-29T03:19:31.297Z,19.41
2022-07-29T03:22:00.451Z,19.36
2022-07-29T03:24:35.207Z,19.32
2022-07-29T03:27:04.924Z,19.27
2022-07-29T03:29:34.782Z,19.26
2022-07-29T03:32:08.651Z,19.24
2022-07-29T03:34:39.128Z,19.22
2022-07-29T03:37:08.424Z,19.19
2022-07-29T03:39:43.380Z,19.14
2022-07-29T03:42:17.279Z,19.11
2022-07-29T03:44:49.429Z,19.09
2022-07-29T03:47:43.438Z,19.08
2022-07-29T03:50:16.678Z,19.07
2022-07-29T03:52:45.654Z,19.06
2022-07-29T03:55:14.910Z,19.05
2022-07-29T03:57:43.849Z,19.04
2022-07-29T04:00:13.652Z,19.03
2022-07-29T04:02:47.866Z,19.03
2022-07-29T04:05:17.420Z,19.02
2022-07-29T04:07:46.652Z,19.03
2022-07-29T04:10:16.502Z,19.01
2022-07-29T04:12:45.208Z,19.00
2022-07-29T04:15:13.940Z,18.99
2022-07-29T04:17:43.973Z,19.00
2022-07-29T04:20:14.210Z,19.00
2022-07-29T04:22:42.714Z,19.00
2022-07-29T04:25:11.179Z,18.99
2022-07-29T04:27:59.667Z,18.99
2022-07-29T04:30:28.392Z,18.99
2022-07-29T04:32:58.151Z,19.01
2022-07-29T04:35:27.028Z,19.01
2022-07-29T04:37:55.671Z,19.03
2022-07-29T04:40:24.057Z,19.03
2022-07-29T04:42:52.530Z,19.05
2022-07-29T04:45:23.192Z,19.06
2022-07-29T04:47:51.654Z,19.09
2022-07-29T04:50:21.426Z,19.11
2022-07-29T04:52:49.705Z,19.13
2022-07-29T04:55:18.049Z,19.16
2022-07-29T04:57:46.417Z,19.18
2022-07-29T05:00:15.751Z,19.21
2022-07-29T05:02:44.182Z,19.24
2022-07-29T05:05:12.543Z,19.28
2022-07-29T05:07:44.761Z,19.31
2022-07-29T05:10:13.732Z,19.36
2022-07-29T05:12:42.077Z,19.40
2022-07-29T05:15:12.157Z,19.43
2022-07-29T05:17:40.828Z,19.46
2022-07-29T05:20:10.818Z,19.50
2022-07-29T05:22:39.288Z,19.55
2022-07-29T05:25:10.657Z,19.58
2022-07-29T05:27:39.016Z,19.63
2022-07-29T05:30:09.156Z,19.68
2022-07-29T05:32:37.548Z,19.72
2022-07-29T05:35:06.858Z,19.77
2022-07-29T05:37:35.833Z,19.82
2022-07-29T05:40:04.716Z,19.86
2022-07-29T05:42:34.909Z,19.92
2022-07-29T05:45:04.229Z,19.98
2022-07-29T05:47:32.693Z,20.04
2022-07-29T05:50:01.305Z,20.10
2022-07-29T05:52:29.834Z,20.16
2022-07-29T05:54:58.427Z,20.24
2022-07-29T05:57:26.943Z,20.29
2022-07-29T05:59:56.567Z,20.37
2022-07-29T06:02:24.917Z,20.42
2022-07-29T06:04:53.266Z,20.48
2022-07-29T06:07:21.658Z,20.54
2022-07-29T06:09:49.928Z,20.61
2022-07-29T06:12:18.185Z,20.70
2022-07-29T06:14:48.158Z,20.79
2022-07-29T06:17:20.626Z,20.88
2022-07-29T06:19:48.945Z,21.00
2022-07-29T06:22:18.122Z,21.11
2022-07-29T06:24:46.453Z,21.24
2022-07-29T06:27:14.910Z,21.37
2022-07-29T06:29:43.259Z,21.51
2022-07-29T06:32:11.624Z,21.62
2022-07-29T06:34:41.367Z,21.73
2022-07-29T06:37:15.423Z,21.86
2022-07-29T06:39:44.163Z,21.98
2022-07-29T06:42:12.584Z,22.07
2022-07-29T06:44:40.821Z,22.12
2022-07-29T06:47:09.327Z,22.17
2022-07-29T06:49:37.635Z,22.24
2022-07-29T06:52:07.884Z,22.30
2022-07-29T06:54:36.227Z,22.38
2022-07-29T06:57:04.601Z,22.45
2022-07-29T06:59:35.768Z,22.55
2022-07-29T07:02:04.542Z,22.64
2022-07-29T07:04:33.180Z,22.73
2022-07-29T07:07:01.589Z,22.80
2022-07-29T07:09:40.522Z,22.87
2022-07-29T07:12:09.859Z,22.97
2022-07-29T07:14:38.182Z,23.02
2022-07-29T07:17:07.999Z,23.11
2022-07-29T07:19:36.407Z,23.15
2022-07-29T07:22:04.852Z,23.21
2022-07-29T07:24:34.523Z,23.30
2022-07-29T07:27:02.813Z,23.41
2022-07-29T07:29:31.222Z,23.54
2022-07-29T07:32:01.049Z,23.67
2022-07-29T07:34:30.979Z,23.90
2022-07-29T07:36:59.277Z,24.21
2022-07-29T07:39:27.959Z,24.68
2022-07-29T07:41:57.628Z,25.01
2022-07-29T07:44:26.063Z,25.34
2022-07-29T07:46:54.835Z,25.61
2022-07-29T07:49:23.278Z,25.46
2022-07-29T07:51:51.853Z,25.30
2022-07-29T07:54:20.737Z,25.27
2022-07-29T07:56:53.006Z,25.32
2022-07-29T07:59:23.103Z,25.33
2022-07-29T08:01:56.364Z,25.31
2022-07-29T08:04:28.449Z,25.48
2022-07-29T08:06:58.545Z,25.79
2022-07-29T08:09:30.281Z,25.96
2022-07-29T08:11:59.973Z,26.02
2022-07-29T08:14:29.906Z,26.11
2022-07-29T08:16:58.239Z,26.21
2022-07-29T08:19:26.627Z,26.46
2022-07-29T08:21:55.522Z,26.72
2022-07-29T08:24:42.008Z,26.99
2022-07-29T08:27:33.528Z,27.28
2022-07-29T08:30:00.180Z,27.37
2022-07-29T08:32:51.876Z,27.35
2022-07-29T08:35:17.980Z,27.22
2022-07-29T08:37:46.276Z,27.36
2022-07-29T08:40:15.561Z,27.62
2022-07-29T08:42:43.883Z,27.77
2022-07-29T08:45:13.986Z,28.00
2022-07-29T08:47:42.520Z,28.25
2022-07-29T08:50:12.204Z,28.43
2022-07-29T08:52:43.004Z,28.81
2022-07-29T08:55:12.280Z,29.03
2022-07-29T08:57:51.179Z,28.92
2022-07-29T09:00:26.350Z,28.63
2022-07-29T09:03:00.215Z,28.45
2022-07-29T09:05:29.572Z,28.55
2022-07-29T09:07:58.328Z,28.61
2022-07-29T09:10:26.928Z,28.57
2022-07-29T09:12:57.321Z,28.56
2022-07-29T09:15:27.409Z,28.45
2022-07-29T09:17:56.323Z,28.44
2022-07-29T09:20:25.353Z,28.80
2022-07-29T09:22:54.892Z,29.42
2022-07-29T09:25:36.416Z,30.10
2022-07-29T09:28:09.729Z,30.59
2022-07-29T09:30:53.029Z,30.52
2022-07-29T09:33:22.432Z,30.52
2022-07-29T09:36:02.236Z,30.53
2022-07-29T09:38:32.652Z,30.58
2022-07-29T09:41:05.849Z,30.50
2022-07-29T09:43:35.652Z,30.52
2022-07-29T09:46:14.015Z,30.55
2022-07-29T09:48:42.765Z,30.69
2022-07-29T09:51:24.149Z,31.11
2022-07-29T09:53:55.348Z,31.69
2022-07-29T09:56:41.159Z,32.27
2022-07-29T09:59:12.253Z,32.73
2022-07-29T10:01:42.034Z,33.22
2022-07-29T10:04:10.564Z,33.64
2022-07-29T10:07:04.231Z,33.83
2022-07-29T10:09:34.182Z,34.11
2022-07-29T10:12:14.656Z,34.68
2022-07-29T10:14:44.596Z,34.80
2022-07-29T10:17:14.393Z,34.98
2022-07-29T10:19:43.341Z,34.93
2022-07-29T10:22:12.881Z,34.34
2022-07-29T10:24:41.973Z,33.76
2022-07-29T10:27:11.222Z,33.36
2022-07-29T10:29:39.525Z,32.91
2022-07-29T10:32:31.479Z,32.32
2022-07-29T10:35:17.705Z,31.54
2022-07-29T10:38:17.320Z,31.21
2022-07-29T10:41:19.542Z,30.91
2022-07-29T10:43:51.418Z,30.76
2022-07-29T10:46:20.851Z,30.88
2022-07-29T10:49:15.179Z,31.43
2022-07-29T10:51:59.794Z,32.07
2022-07-29T10:54:51.533Z,32.85
2022-07-29T10:57:53.926Z,33.33
2022-07-29T11:00:34.399Z,33.88
2022-07-29T11:03:04.820Z,34.12
2022-07-29T11:05:59.627Z,34.33
2022-07-29T11:08:28.944Z,34.76
2022-07-29T11:11:34.902Z,35.11
2022-07-29T11:14:03.416Z,35.22
2022-07-29T11:17:05.842Z,35.41
2022-07-29T11:19:37.208Z,35.52
2022-07-29T11:22:12.373Z,35.92
2022-07-29T11:24:50.249Z,36.25
2022-07-29T11:27:23.043Z,36.45
2022-07-29T11:29:58.533Z,36.45
2022-07-29T11:32:37.089Z,36.04
2022-07-29T11:35:37.179Z,35.64
2022-07-29T11:38:31.942Z,35.30
2022-07-29T11:41:27.407Z,35.17
2022-07-29T11:43:58.429Z,35.14
2022-07-29T11:46:47.984Z,35.22
2022-07-29T11:49:32.207Z,35.35
2022-07-29T11:52:03.692Z,35.63
2022-07-29T11:54:52.524Z,36.30
2022-07-29T11:57:36.709Z,36.95
2022-07-29T12:00:12.706Z,37.12
2022-07-29T12:02:48.654Z,36.69
2022-07-29T12:05:36.384Z,36.95
2022-07-29T12:08:14.598Z,37.11
2022-07-29T12:10:45.280Z,37.23
2022-07-29T12:13:15.733Z,37.48
2022-07-29T12:15:47.379Z,37.74
2022-07-29T12:18:23.956Z,38.12
2022-07-29T12:21:03.275Z,38.53
2022-07-29T12:23:34.281Z,38.66
2022-07-29T12:26:10.937Z,38.30
2022-07-29T12:28:50.790Z,37.88
2022-07-29T12:31:43.988Z,37.87
2022-07-29T12:34:07.709Z,38.19
2022-07-29T12:36:36.205Z,38.65
2022-07-29T12:39:05.180Z,38.68
2022-07-29T12:41:35.621Z,38.29
2022-07-29T12:44:04.540Z,37.91
2022-07-29T12:46:33.059Z,37.39
2022-07-29T12:49:04.049Z,37.10
2022-07-29T12:51:34.805Z,37.26
2022-07-29T12:54:11.237Z,37.26
2022-07-29T12:56:43.554Z,37.38
2022-07-29T12:59:23.220Z,37.73
2022-07-29T13:01:54.348Z,38.06
2022-07-29T13:04:31.408Z,38.51
2022-07-29T13:07:06.917Z,38.61
2022-07-29T13:09:43.902Z,38.75
2022-07-29T13:12:15.375Z,38.52
2022-07-29T13:14:46.137Z,38.21
2022-07-29T13:17:17.122Z,37.68
2022-07-29T13:19:48.451Z,37.37
2022-07-29T13:22:20.285Z,37.54
2022-07-29T13:24:51.262Z,38.06
2022-07-29T13:27:22.770Z,38.00
2022-07-29T13:29:52.317Z,37.35
2022-07-29T13:32:28.392Z,36.70
2022-07-29T13:34:58.359Z,36.20
2022-07-29T13:37:27.220Z,35.83
2022-07-29T13:39:56.834Z,35.55
2022-07-29T13:42:26.960Z,35.18
2022-07-29T13:44:55.316Z,34.84
2022-07-29T13:47:32.342Z,34.58
2022-07-29T13:50:01.978Z,34.23
2022-07-29T13:52:30.810Z,34.09
2022-07-29T13:54:59.247Z,34.00
2022-07-29T13:57:30.832Z,33.99
2022-07-29T13:59:59.413Z,33.81
2022-07-29T14:02:27.892Z,33.57
2022-07-29T14:04:56.792Z,33.42
2022-07-29T14:07:25.287Z,33.30
2022-07-29T14:09:53.715Z,33.24
2022-07-29T14:12:22.179Z,33.16
2022-07-29T14:14:51.885Z,33.17
2022-07-29T14:17:20.359Z,33.11
2022-07-29T14:19:48.854Z,33.03
2022-07-29T14:22:19.596Z,32.97
2022-07-29T14:24:50.735Z,32.94
2022-07-29T14:27:20.064Z,32.90
2022-07-29T14:30:10.232Z,32.80
2022-07-29T14:32:38.585Z,32.78
2022-07-29T14:35:08.765Z,32.90
2022-07-29T14:37:40.181Z,33.05
2022-07-29T14:40:11.249Z,33.11
2022-07-29T14:42:40.303Z,33.13
2022-07-29T14:45:11.685Z,33.05
2022-07-29T14:47:41.339Z,33.02
2022-07-29T14:50:11.470Z,33.16
2022-07-29T14:52:40.155Z,33.35
2022-07-29T14:55:16.487Z,33.53
2022-07-29T14:57:48.657Z,33.72
2022-07-29T15:00:19.303Z,33.88
2022-07-29T15:03:03.315Z,34.04
2022-07-29T15:05:32.146Z,34.49
2022-07-29T15:08:01.428Z,34.98
2022-07-29T15:10:30.374Z,35.22
2022-07-29T15:12:59.268Z,35.37
2022-07-29T15:15:29.103Z,35.16
2022-07-29T15:17:57.395Z,34.84
2022-07-29T15:20:27.996Z,34.54
2022-07-29T15:22:57.380Z,34.25
2022-07-29T15:25:26.313Z,34.08
2022-07-29T15:28:01.237Z,33.89
2022-07-29T15:30:34.276Z,33.80
2022-07-29T15:33:04.135Z,33.82
2022-07-29T15:35:32.621Z,33.72
2022-07-29T15:38:00.946Z,33.61
2022-07-29T15:40:29.583Z,33.39
2022-07-29T15:42:58.250Z,33.38
2022-07-29T15:45:26.680Z,33.60
2022-07-29T15:48:01.831Z,33.94
2022-07-29T15:50:30.163Z,34.28
2022-07-29T15:52:58.487Z,34.50
2022-07-29T15:55:27.184Z,34.53
2022-07-29T15:58:00.310Z,34.55
2022-07-29T16:00:29.227Z,35.00
2022-07-29T16:02:57.634Z,35.56
2022-07-29T16:05:29.551Z,35.49
2022-07-29T16:07:59.639Z,35.19
2022-07-29T16:10:28.123Z,35.49
2022-07-29T16:12:56.451Z,36.28
2022-07-29T16:15:25.033Z,36.90
2022-07-29T16:17:53.336Z,37.25
2022-07-29T16:20:22.393Z,37.68
2022-07-29T16:22:52.442Z,38.09
2022-07-29T16:25:20.952Z,37.74
2022-07-29T16:27:49.292Z,37.45
2022-07-29T16:30:17.625Z,37.44
2022-07-29T16:32:45.916Z,36.83
2022-07-29T16:35:14.248Z,36.13
2022-07-29T16:37:42.563Z,35.41
2022-07-29T16:40:12.753Z,34.74
2022-07-29T16:42:46.897Z,34.04
2022-07-29T16:45:16.446Z,33.44
2022-07-29T16:47:46.511Z,33.23
2022-07-29T16:50:14.918Z,33.71
2022-07-29T16:52:43.260Z,34.27
2022-07-29T16:55:13.015Z,34.84
2022-07-29T16:57:42.665Z,35.25
2022-07-29T17:00:12.734Z,35.18
2022-07-29T17:02:41.164Z,35.08
2022-07-29T17:05:12.223Z,35.24
2022-07-29T17:07:40.894Z,35.38
2022-07-29T17:10:10.950Z,35.48
2022-07-29T17:12:42.035Z,35.40
2022-07-29T17:15:12.886Z,34.85
2022-07-29T17:17:56.414Z,34.04
2022-07-29T17:20:26.675Z,33.16
2022-07-29T17:22:55.369Z,32.58
2022-07-29T17:25:25.001Z,32.15
2022-07-29T17:28:00.591Z,31.70
2022-07-29T17:30:29.756Z,31.29
2022-07-29T17:32:58.154Z,30.95
2022-07-29T17:35:43.820Z,30.60
2022-07-29T17:38:12.183Z,30.22
2022-07-29T17:40:40.506Z,29.97
2022-07-29T17:43:10.273Z,29.76
2022-07-29T17:45:48.771Z,29.57
2022-07-29T17:48:17.617Z,29.42
2022-07-29T17:50:46.248Z,29.29
2022-07-29T17:53:17.016Z,29.11
2022-07-29T17:55:46.261Z,28.96
2022-07-29T17:58:16.696Z,28.84
2022-07-29T18:00:45.388Z,28.70
2022-07-29T18:03:13.793Z,28.59
2022-07-29T18:05:42.733Z,28.48
2022-07-29T18:08:11.743Z,28.35
2022-07-29T18:10:41.310Z,28.23
2022-07-29T18:13:09.708Z,28.11
2022-07-29T18:15:39.432Z,28.00
2022-07-29T18:18:08.494Z,27.90
2022-07-29T18:20:36.878Z,27.79
2022-07-29T18:23:05.189Z,27.68
2022-07-29T18:25:33.900Z,27.62
2022-07-29T18:28:02.365Z,27.54
2022-07-29T18:30:33.710Z,27.46
2022-07-29T18:33:21.428Z,27.40
2022-07-29T18:36:11.282Z,27.31
2022-07-29T18:38:41.113Z,27.24
2022-07-29T18:41:09.520Z,27.18
2022-07-29T18:43:37.844Z,27.13
2022-07-29T18:46:06.660Z,27.11
2022-07-29T18:48:36.850Z,27.01
2022-07-29T18:51:09.198Z,26.95
2022-07-29T18:53:38.482Z,26.89
2022-07-29T18:56:06.820Z,26.80
2022-07-29T18:58:37.047Z,26.71
2022-07-29T19:01:05.468Z,26.61
2022-07-29T19:03:33.836Z,26.50
2022-07-29T19:06:03.495Z,26.41
2022-07-29T19:08:32.757Z,26.33
2022-07-29T19:11:01.116Z,26.26
2022-07-29T19:13:29.593Z,26.17
2022-07-29T19:15:58.023Z,26.09
2022-07-29T19:18:26.467Z,26.01
2022-07-29T19:20:54.768Z,25.92
2022-07-29T19:23:25.655Z,25.83
2022-07-29T19:25:54.249Z,25.76
2022-07-29T19:28:23.112Z,25.68
2022-07-29T19:30:51.859Z,25.63
2022-07-29T19:33:20.864Z,25.57
2022-07-29T19:35:52.951Z,25.50
2022-07-29T19:38:24.670Z,25.44
2022-07-29T19:40:53.086Z,25.39
2022-07-29T19:43:52.093Z,25.36
2022-07-29T19:46:09.843Z,25.31
2022-07-29T19:48:38.276Z,25.27
2022-07-29T19:51:06.706Z,25.24
2022-07-29T19:53:36.357Z,25.20
2022-07-29T19:56:05.296Z,25.16
2022-07-29T19:58:37.435Z,25.11
2022-07-29T20:01:10.377Z,25.06
2022-07-29T20:03:40.668Z,24.99
2022-07-29T20:06:09.109Z,24.92
2022-07-29T20:08:38.797Z,24.83
2022-07-29T20:11:07.747Z,24.74
2022-07-29T20:13:36.116Z,24.65
2022-07-29T20:16:08.068Z,24.58
2022-07-29T20:18:36.995Z,24.47
2022-07-29T20:21:05.517Z,24.35
2022-07-29T20:23:33.979Z,24.20
2022-07-29T20:26:08.714Z,24.09
2022-07-29T20:28:40.181Z,23.98
2022-07-29T20:31:08.758Z,23.86
2022-07-29T20:33:37.153Z,23.75
2022-07-29T20:36:07.076Z,23.66
2022-07-29T20:38:35.448Z,23.58
2022-07-29T20:41:05.311Z,23.50
2022-07-29T20:43:36.060Z,23.43
2022-07-29T20:46:07.369Z,23.37
2022-07-29T20:48:35.736Z,23.34
2022-07-29T20:51:04.209Z,23.30
2022-07-29T20:53:33.719Z,23.23
2022-07-29T20:56:02.076Z,23.17
2022-07-29T20:58:32.604Z,23.11
2022-07-29T21:01:01.038Z,23.04
2022-07-29T21:03:29.357Z,22.99
2022-07-29T21:05:57.708Z,22.96
2022-07-29T21:08:27.528Z,22.91
2022-07-29T21:10:56.169Z,22.90
2022-07-29T21:13:25.501Z,22.90
2022-07-29T21:15:59.090Z,22.90
2022-07-29T21:18:32.579Z,22.88
2022-07-29T21:21:02.237Z,22.86
2022-07-29T21:23:31.159Z,22.87
2022-07-29T21:25:59.826Z,22.86
2022-07-29T21:28:27.173Z,22.85
2022-07-29T21:30:58.461Z,22.84
2022-07-29T21:33:28.475Z,22.81
2022-07-29T21:36:35.437Z,22.77
2022-07-29T21:38:45.855Z,22.75
2022-07-29T21:41:15.363Z,22.70
2022-07-29T21:43:43.672Z,22.66
2022-07-29T21:46:14.462Z,22.64
2022-07-29T21:48:44.672Z,22.61
2022-07-29T21:51:13.108Z,22.56
2022-07-29T21:53:41.606Z,22.54
2022-07-29T21:56:14.502Z,22.51
2022-07-29T21:58:43.400Z,22.48
2022-07-29T22:01:13.098Z,22.45
2022-07-29T22:03:41.427Z,22.43
2022-07-29T22:06:16.655Z,22.41
2022-07-29T22:08:47.785Z,22.39
2022-07-29T22:11:16.139Z,22.36
2022-07-29T22:13:44.451Z,22.31
2022-07-29T22:16:15.017Z,22.28
2022-07-29T22:18:46.667Z,22.24
2022-07-29T22:21:15.468Z,22.22
2022-07-29T22:23:43.767Z,22.19
2022-07-29T22:26:12.321Z,22.17
2022-07-29T22:28:40.696Z,22.15
2022-07-29T22:31:09.085Z,22.13
2022-07-29T22:33:39.096Z,22.08
2022-07-29T22:36:08.231Z,22.04
2022-07-29T22:38:36.521Z,21.97
2022-07-29T22:41:05.073Z,21.90
2022-07-29T22:43:33.951Z,21.82
2022-07-29T22:46:02.396Z,21.80
2022-07-29T22:48:31.245Z,21.79
2022-07-29T22:51:01.338Z,21.78
2022-07-29T22:53:29.699Z,21.78
2022-07-29T22:55:58.045Z,21.79
2022-07-29T22:58:26.503Z,21.77
2022-07-29T23:00:55.133Z,21.74
2022-07-29T23:03:23.799Z,21.70
2022-07-29T23:05:52.444Z,21.66
2022-07-29T23:08:22.254Z,21.61
2022-07-29T23:10:50.628Z,21.55
2022-07-29T23:13:18.960Z,21.48
2022-07-29T23:15:47.371Z,21.43
2022-07-29T23:18:15.950Z,21.39
2022-07-29T23:20:45.424Z,21.35
2022-07-29T23:23:13.959Z,21.31
2022-07-29T23:25:43.853Z,21.25
2022-07-29T23:28:13.271Z,21.18
2022-07-29T23:30:42.107Z,21.13
2022-07-29T23:33:10.476Z,21.09
2022-07-29T23:35:38.805Z,21.04
2022-07-29T23:38:07.412Z,21.01
2022-07-29T23:40:35.821Z,20.96
2022-07-29T23:43:08.797Z,20.92
2022-07-29T23:45:44.469Z,20.87
2022-07-29T23:48:14.505Z,20.81
2022-07-29T23:50:43.321Z,20.77
2022-07-29T23:53:12.095Z,20.73
2022-07-29T23:55:40.439Z,20.69
2022-07-29T23:58:10.161Z,20.67
